Scott AFB, Illinois
Current Conditions -  °F | °C
As of 2:58 AM on Friday 24 Oct 2014 (Local Time) from KBLV Reporting Station
Broken Clouds Broken Clouds  
Wind Chill: 51°   Ceiling: 4900
Heat Index: 51°   Visibility: 7mi
Dew Point: 48°   Wind: 0mph
Humidity: 92%   Direction: NA
Pressure: 30.08"   Gusts: NA
Location:  38.54°N, 89.85°W
Report Text: KBLV 240758Z AUTO 00000KT 7SM R14L/5500FT BKN049 BKN060 10/09 A3008 RMK AO2 SLP189 T01040091
Loading
Personal Weather Stations






























Interactive Weather Map
Tropical Storm Tracking
New forecast layout! Learn more

10-Day Weather Forecast

Advertisements
Track Severe Weather on mobile